^^
Meteo Knjazevac Station Historical Data
Daily Summary for September 4, 2021 Units:  Metric    English   Both
Daily Weekly Monthly Yearly Custom
  High: Low: Average:
Temperature: 24.9 °C 5.4 °C 15.3 °C
Dew Point: 9.6 °C 3.2 °C 6.8 °C
Humidity: 86% 29% 60%
Wind Speed: 11.3km/h 0km/h 3.1km/h
Wind Gust: 19.3km/h - -
Wind- - SW
Pressure: 1023.9 hPa 1015.5 hPa -
Precipitation: 0 mm    
Historical Graphs
 
 
Tabular Data for September 4, 2021
Time Temperature Dew Point Pressure Wind Wind Speed Wind Gust Humidity Rainfall Rate (Hourly) solar Conditions
00:00 13.5 °C 7.7 °C 1023.2 hPa Calm   3.2 km/h 68% 0 mm 0 W/m2
00:10 13.4 °C 7.4 °C 1023.2 hPa Calm   3.2 km/h 67% 0 mm 0 W/m2
00:20 13.3 °C 6.8 °C 1023.2 hPa Calm   6.4 km/h 65% 0 mm 0 W/m2
00:30 13.2 °C 6.8 °C 1023.2 hPa Calm   3.2 km/h 65% 0 mm 0 W/m2
00:40 13.1 °C 7.1 °C 1023.2 hPa North 3.2 km/h 3.2 km/h 67% 0 mm 0 W/m2
00:50 12.9 °C 6.9 °C 1023.2 hPa North 1.6 km/h 3.2 km/h 67% 0 mm 0 W/m2
01:00 12.7 °C 6.3 °C 1023.2 hPa North 3.2 km/h 8 km/h 65% 0 mm 0 W/m2
01:10 12.6 °C 6.2 °C 1023.2 hPa North 1.6 km/h 6.4 km/h 65% 0 mm 0 W/m2
01:20 12.4 °C 6.4 °C 1023.2 hPa NNE 1.6 km/h 3.2 km/h 67% 0 mm 0 W/m2
01:30 12.2 °C 6.7 °C 1023.2 hPa Calm   3.2 km/h 69% 0 mm 0 W/m2
01:40 11.9 °C 7 °C 1023.2 hPa Calm   4.8 km/h 72% 0 mm 0 W/m2
01:50 11.7 °C 7 °C 1023.2 hPa Calm   1.6 km/h 73% 0 mm 0 W/m2
02:00 11.5 °C 6.8 °C 1022.9 hPa NNW 1.6 km/h 3.2 km/h 73% 0 mm 0 W/m2
02:10 11.2 °C 6.7 °C 1022.9 hPa NE 1.6 km/h 3.2 km/h 74% 0 mm 0 W/m2
02:20 10.9 °C 6.7 °C 1022.9 hPa SSE 1.6 km/h 6.4 km/h 75% 0 mm 0 W/m2
02:30 10.7 °C 6.4 °C 1022.9 hPa South 3.2 km/h 6.4 km/h 75% 0 mm 0 W/m2
02:40 10.4 °C 6.2 °C 1022.9 hPa South 3.2 km/h 6.4 km/h 75% 0 mm 0 W/m2
02:50 10.1 °C 6.2 °C 1022.9 hPa SW 1.6 km/h 4.8 km/h 77% 0 mm 0 W/m2
03:00 9.8 °C 5.9 °C 1022.9 hPa South 1.6 km/h 6.4 km/h 77% 0 mm 0 W/m2
03:10 9.7 °C 6.1 °C 1023.2 hPa Calm   3.2 km/h 78% 0 mm 0 W/m2
03:20 9.4 °C 5.9 °C 1023.2 hPa Calm   3.2 km/h 79% 0 mm 0 W/m2
03:30 9.2 °C 5.9 °C 1023.2 hPa West 3.2 km/h 4.8 km/h 80% 0 mm 0 W/m2
03:40 8.9 °C 5.6 °C 1023.2 hPa WSW 3.2 km/h 6.4 km/h 80% 0 mm 0 W/m2
03:50 8.6 °C 5.5 °C 1023.2 hPa SW 3.2 km/h 4.8 km/h 81% 0 mm 0 W/m2
04:00 8.2 °C 5.5 °C 1023.2 hPa WSW 1.6 km/h 4.8 km/h 83% 0 mm 0 W/m2
04:10 7.9 °C 5.2 °C 1023.2 hPa WNW 4.8 km/h 9.7 km/h 83% 0 mm 0 W/m2
04:20 7.8 °C 5.1 °C 1023.2 hPa West 4.8 km/h 8 km/h 83% 0 mm 0 W/m2
04:30 7.6 °C 4.9 °C 1023.2 hPa West 4.8 km/h 8 km/h 83% 0 mm 0 W/m2
04:40 7.3 °C 4.6 °C 1023.2 hPa West 3.2 km/h 9.7 km/h 83% 0 mm 0 W/m2
04:50 6.9 °C 4.4 °C 1023.2 hPa WSW 3.2 km/h 8 km/h 84% 0 mm 0 W/m2
05:00 6.5 °C 4 °C 1023.2 hPa West 3.2 km/h 8 km/h 84% 0 mm 0 W/m2
05:10 6.3 °C 3.8 °C 1023.2 hPa WNW 4.8 km/h 9.7 km/h 84% 0 mm 0 W/m2
05:20 6.1 °C 3.8 °C 1023.2 hPa West 4.8 km/h 8 km/h 85% 0 mm 3 W/m2
05:30 5.9 °C 3.6 °C 1023.2 hPa WNW 3.2 km/h 6.4 km/h 85% 0 mm 9 W/m2
05:40 5.8 °C 3.4 °C 1023.2 hPa West 1.6 km/h 6.4 km/h 85% 0 mm 17 W/m2
05:50 5.7 °C 3.4 °C 1023.2 hPa WNW 3.2 km/h 8 km/h 85% 0 mm 27 W/m2
06:00 5.5 °C 3.3 °C 1023.6 hPa West 3.2 km/h 8 km/h 86% 0 mm 46 W/m2
06:10 5.5 °C 3.3 °C 1023.6 hPa WNW 1.6 km/h 4.8 km/h 86% 0 mm 65 W/m2
06:20 5.4 °C 3.2 °C 1023.6 hPa WNW 1.6 km/h 4.8 km/h 86% 0 mm 87 W/m2
06:30 5.5 °C 3.3 °C 1023.9 hPa Calm   3.2 km/h 86% 0 mm 113 W/m2
06:40 5.6 °C 3.4 °C 1023.9 hPa Calm   3.2 km/h 86% 0 mm 141 W/m2
06:50 5.7 °C 3.6 °C 1023.6 hPa Calm   3.2 km/h 86% 0 mm 168 W/m2
07:00 5.8 °C 3.7 °C 1023.9 hPa WNW 1.6 km/h 3.2 km/h 86% 0 mm 200 W/m2
07:10 6 °C 3.8 °C 1023.6 hPa Calm   3.2 km/h 86% 0 mm 229 W/m2
07:20 6.3 °C 4.1 °C 1023.6 hPa Calm   3.2 km/h 86% 0 mm 267 W/m2
07:30 6.7 °C 4.5 °C 1023.2 hPa Calm   3.2 km/h 86% 0 mm 299 W/m2
07:40 7.1 °C 4.8 °C 1023.2 hPa Calm   3.2 km/h 85% 0 mm 334 W/m2
07:50 7.5 °C 5.2 °C 1023.2 hPa Calm   3.2 km/h 85% 0 mm 368 W/m2
08:00 7.9 °C 5.4 °C 1023.2 hPa Calm   1.6 km/h 84% 0 mm 402 W/m2
08:10 8.4 °C 5.3 °C 1022.9 hPa Calm   3.2 km/h 81% 0 mm 436 W/m2
08:20 9 °C 5.8 °C 1022.9 hPa Calm   4.8 km/h 80% 0 mm 472 W/m2
08:30 9.7 °C 6.2 °C 1022.9 hPa South 3.2 km/h 4.8 km/h 79% 0 mm 506 W/m2
08:40 10.2 °C 6.4 °C 1022.9 hPa WSW 1.6 km/h 6.4 km/h 77% 0 mm 552 W/m2
08:50 11.2 °C 6.6 °C 1022.9 hPa SSE 1.6 km/h 8 km/h 73% 0 mm 518 W/m2
09:00 12.4 °C 6.7 °C 1022.6 hPa SW 3.2 km/h 4.8 km/h 68% 0 mm 605 W/m2
09:10 13.4 °C 6.7 °C 1022.6 hPa SW 1.6 km/h 6.4 km/h 64% 0 mm 635 W/m2
09:20 14.4 °C 6.7 °C 1022.2 hPa SW 3.2 km/h 6.4 km/h 60% 0 mm 664 W/m2
09:30 15 °C 6 °C 1022.2 hPa WSW 4.8 km/h 9.7 km/h 55% 0 mm 690 W/m2
09:40 15.5 °C 6.2 °C 1022.2 hPa WNW 1.6 km/h 9.7 km/h 54% 0 mm 714 W/m2
09:50 16.1 °C 6.6 °C 1021.9 hPa NW 1.6 km/h 8 km/h 53% 0 mm 737 W/m2
10:00 16.6 °C 6.7 °C 1021.9 hPa NNW 3.2 km/h 9.7 km/h 52% 0 mm 759 W/m2
10:10 16.9 °C 6.4 °C 1021.9 hPa NW 4.8 km/h 11.3 km/h 50% 0 mm 779 W/m2
10:20 17.1 °C 7.2 °C 1021.9 hPa West 1.6 km/h 8 km/h 52% 0 mm 799 W/m2
10:30 17.6 °C 6.4 °C 1021.9 hPa WNW 1.6 km/h 8 km/h 48% 0 mm 817 W/m2
10:40 18.2 °C 6.7 °C 1021.6 hPa NNE 3.2 km/h 9.7 km/h 47% 0 mm 116 W/m2
10:50 18.4 °C 6.2 °C 1021.6 hPa WSW 3.2 km/h 8 km/h 45% 0 mm 849 W/m2
11:00 18.6 °C 7.1 °C 1021.2 hPa WNW 3.2 km/h 12.9 km/h 47% 0 mm 297 W/m2
11:10 18.8 °C 6.6 °C 1021.2 hPa NE 4.8 km/h 9.7 km/h 45% 0 mm 575 W/m2
11:20 19.1 °C 7.5 °C 1021.2 hPa NNE 3.2 km/h 11.3 km/h 47% 0 mm 864 W/m2
11:30 19.1 °C 6.9 °C 1021.2 hPa NNW 3.2 km/h 9.7 km/h 45% 0 mm 896 W/m2
11:40 19.5 °C 6.9 °C 1020.9 hPa East 3.2 km/h 11.3 km/h 44% 0 mm 851 W/m2
11:50 19.9 °C 7.3 °C 1020.9 hPa NNE 1.6 km/h 12.9 km/h 44% 0 mm 798 W/m2
12:00 20.1 °C 7.1 °C 1020.5 hPa East 4.8 km/h 12.9 km/h 43% 0 mm 915 W/m2
12:10 20.5 °C 7.8 °C 1020.5 hPa NW 3.2 km/h 12.9 km/h 44% 0 mm 918 W/m2
12:20 20.8 °C 8.1 °C 1020.5 hPa NE 3.2 km/h 12.9 km/h 44% 0 mm 857 W/m2
12:30 20.8 °C 8.4 °C 1020.2 hPa NNE 1.6 km/h 11.3 km/h 45% 0 mm 812 W/m2
12:40 21 °C 7.9 °C 1020.2 hPa North 4.8 km/h 9.7 km/h 43% 0 mm 799 W/m2
12:50 21.1 °C 8.4 °C 1020.2 hPa NNE 1.6 km/h 12.9 km/h 44% 0 mm 820 W/m2
13:00 21.3 °C 8.2 °C 1019.9 hPa ENE 4.8 km/h 12.9 km/h 43% 0 mm 850 W/m2
13:10 21.7 °C 8.6 °C 1019.5 hPa NNW 1.6 km/h 9.7 km/h 43% 0 mm 836 W/m2
13:20 21.9 °C 8.7 °C 1019.5 hPa NNE 8 km/h 12.9 km/h 43% 0 mm 748 W/m2
13:30 21.9 °C 8.7 °C 1019.5 hPa NNW 3.2 km/h 11.3 km/h 43% 0 mm 663 W/m2
13:40 22.2 °C 9 °C 1019.5 hPa North 3.2 km/h 9.7 km/h 43% 0 mm 654 W/m2
13:50 22.3 °C 9.1 °C 1019.2 hPa NNW 3.2 km/h 11.3 km/h 43% 0 mm 786 W/m2
14:00 22.6 °C 9.3 °C 1019.2 hPa WNW 4.8 km/h 9.7 km/h 43% 0 mm 850 W/m2
14:10 22.4 °C 8.1 °C 1018.8 hPa SE 4.8 km/h 12.9 km/h 40% 0 mm 834 W/m2
14:20 22.3 °C 8.1 °C 1018.8 hPa NNW 8 km/h 12.9 km/h 40% 0 mm 818 W/m2
14:30 22.3 °C 7.7 °C 1018.5 hPa SE 3.2 km/h 9.7 km/h 39% 0 mm 584 W/m2
14:40 22.3 °C 8.1 °C 1018.2 hPa North 1.6 km/h 9.7 km/h 40% 0 mm 742 W/m2
14:50 22.9 °C 8.6 °C 1018.2 hPa ESE 3.2 km/h 9.7 km/h 40% 0 mm 759 W/m2
15:00 23.4 °C 9 °C 1018.2 hPa WSW 3.2 km/h 9.7 km/h 40% 0 mm 738 W/m2
15:10 23.6 °C 8.4 °C 1018.2 hPa West 3.2 km/h 8 km/h 38% 0 mm 715 W/m2
15:20 23.7 °C 8.5 °C 1017.8 hPa South 3.2 km/h 11.3 km/h 38% 0 mm 690 W/m2
15:30 23.7 °C 8.9 °C 1017.5 hPa NE 3.2 km/h 9.7 km/h 39% 0 mm 665 W/m2
15:40 24.1 °C 8.8 °C 1017.5 hPa NW 4.8 km/h 11.3 km/h 38% 0 mm 639 W/m2
15:50 24.3 °C 9.1 °C 1017.5 hPa WSW 1.6 km/h 11.3 km/h 38% 0 mm 612 W/m2
16:00 24.4 °C 7.6 °C 1017.5 hPa WSW 11.3 km/h 19.3 km/h 34% 0 mm 584 W/m2
16:10 24.6 °C 6.8 °C 1017.2 hPa WSW 9.7 km/h 19.3 km/h 32% 0 mm 514 W/m2
16:20 24.5 °C 6.7 °C 1017.2 hPa SW 3.2 km/h 12.9 km/h 32% 0 mm 414 W/m2
16:30 24.6 °C 7.2 °C 1016.8 hPa SW 4.8 km/h 11.3 km/h 33% 0 mm 443 W/m2
16:40 24.6 °C 7.3 °C 1016.8 hPa SSW 4.8 km/h 11.3 km/h 33% 0 mm 454 W/m2
16:50 24.9 °C 7.1 °C 1016.8 hPa South 3.2 km/h 8 km/h 32% 0 mm 435 W/m2
17:00 24.8 °C 5.6 °C 1016.8 hPa WSW 4.8 km/h 12.9 km/h 29% 0 mm 383 W/m2
17:10 24.6 °C 8.6 °C 1016.8 hPa North 9.7 km/h 14.5 km/h 36% 0 mm 290 W/m2
17:20 24.4 °C 9.2 °C 1016.5 hPa North 3.2 km/h 11.3 km/h 38% 0 mm 226 W/m2
17:30 24 °C 9.2 °C 1016.5 hPa North 8 km/h 16.1 km/h 39% 0 mm 148 W/m2
17:40 23.4 °C 8.6 °C 1016.1 hPa North 4.8 km/h 14.5 km/h 39% 0 mm 171 W/m2
17:50 23.1 °C 9.5 °C 1016.1 hPa North 8 km/h 12.9 km/h 42% 0 mm 242 W/m2
18:00 23 °C 9.4 °C 1016.1 hPa North 4.8 km/h 14.5 km/h 42% 0 mm 218 W/m2
18:10 22.9 °C 9.6 °C 1016.1 hPa North 8 km/h 12.9 km/h 43% 0 mm 114 W/m2
18:20 22.6 °C 9.3 °C 1016.1 hPa NNW 3.2 km/h 11.3 km/h 43% 0 mm 160 W/m2
18:30 22.4 °C 9.6 °C 1015.8 hPa North 8 km/h 14.5 km/h 44% 0 mm 132 W/m2
18:40 22.1 °C 9.3 °C 1015.8 hPa North 9.7 km/h 16.1 km/h 44% 0 mm 96 W/m2
18:50 21.8 °C 8.9 °C 1015.8 hPa NNW 4.8 km/h 11.3 km/h 44% 0 mm 42 W/m2
19:00 21.3 °C 8.8 °C 1015.8 hPa NNW 4.8 km/h 12.9 km/h 45% 0 mm 38 W/m2
19:10 20.8 °C 8.4 °C 1015.8 hPa North 8 km/h 11.3 km/h 45% 0 mm 24 W/m2
19:20 20.3 °C 7.9 °C 1015.8 hPa North 4.8 km/h 11.3 km/h 45% 0 mm 18 W/m2
19:30 19.8 °C 8.2 °C 1015.5 hPa North 3.2 km/h 8 km/h 47% 0 mm 4 W/m2
19:40 19.4 °C 8.4 °C 1015.5 hPa SSW 1.6 km/h 6.4 km/h 49% 0 mm 0 W/m2
19:50 18.9 °C 8.2 °C 1015.8 hPa WSW 1.6 km/h 3.2 km/h 50% 0 mm 0 W/m2
20:00 18.4 °C 8.4 °C 1015.8 hPa SW 1.6 km/h 3.2 km/h 52% 0 mm 0 W/m2
20:10 17.8 °C 8.4 °C 1015.8 hPa SSW 3.2 km/h 4.8 km/h 54% 0 mm 0 W/m2
20:20 17.3 °C 8.1 °C 1015.8 hPa SW 1.6 km/h 3.2 km/h 55% 0 mm 0 W/m2
20:30 16.8 °C 8.2 °C 1015.8 hPa SSW 3.2 km/h 4.8 km/h 57% 0 mm 0 W/m2
20:40 16.3 °C 8.3 °C 1015.8 hPa SW 3.2 km/h 4.8 km/h 59% 0 mm 0 W/m2
20:50 15.8 °C 7.8 °C 1015.8 hPa SW 3.2 km/h 6.4 km/h 59% 0 mm 0 W/m2
21:00 15.4 °C 7.7 °C 1016.1 hPa SW 3.2 km/h 3.2 km/h 60% 0 mm 0 W/m2
21:10 15.1 °C 7.8 °C 1016.1 hPa SW 1.6 km/h 3.2 km/h 62% 0 mm 0 W/m2
21:20 14.6 °C 7.6 °C 1015.8 hPa WSW 4.8 km/h 6.4 km/h 63% 0 mm 0 W/m2
21:30 14.2 °C 7.5 °C 1015.8 hPa West 4.8 km/h 8 km/h 64% 0 mm 0 W/m2
21:40 13.8 °C 7.1 °C 1015.8 hPa WSW 3.2 km/h 8 km/h 64% 0 mm 0 W/m2
21:50 13.4 °C 6.9 °C 1016.1 hPa West 4.8 km/h 8 km/h 65% 0 mm 0 W/m2
22:00 13.1 °C 7.1 °C 1016.1 hPa West 4.8 km/h 8 km/h 67% 0 mm 0 W/m2
22:10 12.9 °C 7.1 °C 1016.1 hPa West 1.6 km/h 8 km/h 68% 0 mm 0 W/m2
22:20 12.5 °C 6.8 °C 1016.1 hPa WSW 1.6 km/h 3.2 km/h 68% 0 mm 0 W/m2
22:30 12.1 °C 6.6 °C 1016.1 hPa West 1.6 km/h 3.2 km/h 69% 0 mm 0 W/m2
22:40 11.9 °C 6.7 °C 1016.5 hPa South 1.6 km/h 4.8 km/h 70% 0 mm 0 W/m2
22:50 11.9 °C 7 °C 1016.1 hPa Calm   6.4 km/h 72% 0 mm 0 W/m2
23:00 11.8 °C 6.9 °C 1016.1 hPa Calm   3.2 km/h 72% 0 mm 0 W/m2
23:10 11.5 °C 6.8 °C 1016.5 hPa Calm   4.8 km/h 73% 0 mm 0 W/m2
23:20 11.3 °C 6.6 °C 1016.5 hPa NW 1.6 km/h 4.8 km/h 73% 0 mm 0 W/m2
23:30 10.9 °C 6.5 °C 1016.5 hPa WNW 1.6 km/h 3.2 km/h 74% 0 mm 0 W/m2
23:40 10.5 °C 6.1 °C 1016.1 hPa West 3.2 km/h 4.8 km/h 74% 0 mm 0 W/m2
23:50 10.2 °C 5.9 °C 1016.1 hPa Calm   3.2 km/h 75% 0 mm 0 W/m2
Knjazevac, Serbia
Compliments of Weather Underground - 2 mb